createdAt,value
2018-05-31T00:02:16.582Z,3.55
2018-05-31T00:04:43.910Z,3.40
2018-05-31T00:07:11.494Z,4.10
2018-05-31T00:09:38.850Z,3.93
2018-05-31T00:12:06.194Z,3.60
2018-05-31T00:14:33.520Z,3.95
2018-05-31T00:17:00.845Z,3.67
2018-05-31T00:19:28.154Z,3.60
2018-05-31T00:21:55.440Z,3.70
2018-05-31T00:24:22.748Z,4.35
2018-05-31T00:26:50.059Z,3.60
2018-05-31T00:29:17.412Z,3.53
2018-05-31T00:31:44.944Z,3.50
2018-05-31T00:34:12.504Z,3.90
2018-05-31T00:36:39.784Z,3.62
2018-05-31T00:39:07.113Z,3.85
2018-05-31T00:41:34.674Z,3.60
2018-05-31T00:44:01.956Z,4.20
2018-05-31T00:46:29.269Z,3.80
2018-05-31T00:48:56.544Z,3.70
2018-05-31T00:51:23.844Z,3.60
2018-05-31T00:53:51.166Z,3.70
2018-05-31T00:56:18.705Z,4.20
2018-05-31T00:58:46.022Z,4.10
2018-05-31T01:01:13.329Z,4.10
2018-05-31T01:03:40.625Z,4.00
2018-05-31T01:06:07.901Z,4.37
2018-05-31T01:08:35.205Z,3.95
2018-05-31T01:11:02.529Z,4.00
2018-05-31T01:13:29.808Z,4.10
2018-05-31T01:15:57.337Z,4.60
2018-05-31T01:18:24.659Z,4.20
2018-05-31T01:20:52.261Z,4.30
2018-05-31T01:23:19.552Z,4.43
2018-05-31T01:25:46.849Z,4.47
2018-05-31T01:28:14.392Z,4.70
2018-05-31T01:30:41.986Z,5.10
2018-05-31T01:33:09.321Z,4.90
2018-05-31T01:35:36.608Z,5.50
2018-05-31T01:38:10.188Z,6.07
2018-05-31T01:40:37.522Z,6.20
2018-05-31T01:43:05.109Z,6.00
2018-05-31T01:45:32.410Z,6.28
2018-05-31T01:48:00.012Z,4.10
2018-05-31T01:50:27.288Z,4.45
2018-05-31T01:52:54.837Z,4.30
2018-05-31T01:55:22.393Z,5.00
2018-05-31T01:57:49.700Z,5.33
2018-05-31T02:00:17.242Z,5.90
2018-05-31T02:02:44.511Z,5.40
2018-05-31T02:05:12.125Z,5.20
2018-05-31T02:07:39.465Z,5.95
2018-05-31T02:10:06.812Z,5.80
2018-05-31T02:12:34.392Z,5.47
2018-05-31T02:15:01.697Z,5.40
2018-05-31T02:17:29.313Z,5.00
2018-05-31T02:19:56.879Z,5.20
2018-05-31T02:22:24.173Z,4.90
2018-05-31T02:24:51.482Z,5.50
2018-05-31T02:27:19.037Z,5.35
2018-05-31T02:29:46.337Z,5.53
2018-05-31T02:32:13.949Z,5.40
2018-05-31T02:34:41.262Z,5.50
2018-05-31T02:37:08.870Z,5.30
2018-05-31T02:39:36.161Z,5.40
2018-05-31T02:42:03.482Z,5.37
2018-05-31T02:44:30.788Z,5.43
2018-05-31T02:46:58.097Z,5.47
2018-05-31T02:49:25.418Z,5.82
2018-05-31T02:51:53.283Z,5.70
2018-05-31T02:54:20.603Z,6.22
2018-05-31T02:56:47.893Z,5.60
2018-05-31T02:59:15.577Z,5.63
2018-05-31T03:01:42.861Z,6.30
2018-05-31T03:04:10.171Z,5.90
2018-05-31T03:06:37.498Z,5.80
2018-05-31T03:09:04.809Z,6.00
2018-05-31T03:11:32.402Z,6.20
2018-05-31T03:13:59.909Z,5.57
2018-05-31T03:16:27.226Z,6.17
2018-05-31T03:18:54.824Z,6.40
2018-05-31T03:21:22.393Z,6.75
2018-05-31T03:23:49.950Z,6.17
2018-05-31T03:26:17.509Z,6.57
2018-05-31T03:28:45.071Z,6.70
2018-05-31T03:31:12.629Z,6.50
2018-05-31T03:33:40.185Z,6.25
2018-05-31T03:36:07.472Z,6.30
2018-05-31T03:38:34.809Z,6.87
2018-05-31T03:41:02.135Z,8.07
2018-05-31T03:43:29.470Z,6.80
2018-05-31T03:45:56.780Z,6.80
2018-05-31T03:48:24.112Z,7.18
2018-05-31T03:50:51.628Z,7.50
2018-05-31T03:53:18.935Z,7.12
2018-05-31T03:55:46.228Z,7.40
2018-05-31T03:58:13.566Z,6.45
2018-05-31T04:00:40.836Z,6.85
2018-05-31T04:03:08.455Z,6.30
2018-05-31T04:05:35.761Z,6.82
2018-05-31T04:08:03.057Z,6.87
2018-05-31T04:10:30.621Z,7.37
2018-05-31T04:12:58.010Z,7.70
2018-05-31T04:15:25.481Z,7.50
2018-05-31T04:17:52.771Z,7.18
2018-05-31T04:20:20.102Z,7.93
2018-05-31T04:22:47.404Z,7.18
2018-05-31T04:25:14.692Z,8.13
2018-05-31T04:27:42.308Z,7.20
2018-05-31T04:30:09.617Z,6.60
2018-05-31T04:32:37.228Z,7.20
2018-05-31T04:35:04.790Z,7.90
2018-05-31T04:37:32.450Z,7.85
2018-05-31T04:39:59.756Z,9.00
2018-05-31T04:42:27.129Z,9.63
2018-05-31T04:44:54.924Z,9.00
2018-05-31T04:47:22.228Z,9.93
2018-05-31T04:49:49.555Z,10.27
2018-05-31T04:52:16.917Z,10.15
2018-05-31T04:54:44.450Z,9.20
2018-05-31T04:57:11.782Z,9.93
2018-05-31T04:59:39.366Z,10.80
2018-05-31T05:02:06.926Z,11.30
2018-05-31T05:04:34.224Z,10.15
2018-05-31T05:07:01.518Z,11.75
2018-05-31T05:09:29.089Z,11.30
2018-05-31T05:11:56.414Z,11.00
2018-05-31T05:14:24.008Z,11.60
2018-05-31T05:16:51.589Z,11.10
2018-05-31T05:19:19.124Z,10.70
2018-05-31T05:21:46.793Z,10.52
2018-05-31T05:24:14.349Z,9.80
2018-05-31T05:26:41.640Z,9.70
2018-05-31T05:29:08.941Z,9.80
2018-05-31T05:31:36.286Z,10.25
2018-05-31T05:34:03.618Z,10.30
2018-05-31T05:36:31.234Z,10.15
2018-05-31T05:38:58.521Z,9.50
2018-05-31T05:41:25.805Z,9.80
2018-05-31T05:43:53.096Z,9.83
2018-05-31T05:46:20.474Z,8.73
2018-05-31T05:48:47.985Z,9.57
2018-05-31T05:51:15.325Z,9.48
2018-05-31T05:53:42.673Z,8.93
2018-05-31T05:56:09.955Z,9.23
2018-05-31T05:58:37.430Z,9.95
2018-05-31T06:01:04.989Z,9.80
2018-05-31T06:03:32.299Z,9.48
2018-05-31T06:05:59.649Z,8.90
2018-05-31T06:08:27.161Z,8.82
2018-05-31T06:10:54.463Z,8.40
2018-05-31T06:13:21.914Z,8.60
2018-05-31T06:15:49.229Z,8.20
2018-05-31T06:18:16.544Z,8.07
2018-05-31T06:20:43.844Z,8.18
2018-05-31T06:23:11.142Z,8.20
2018-05-31T06:25:38.417Z,7.90
2018-05-31T06:28:05.998Z,7.60
2018-05-31T06:30:33.342Z,8.37
2018-05-31T06:33:00.632Z,8.07
2018-05-31T06:35:27.977Z,7.87
2018-05-31T06:37:55.378Z,7.80
2018-05-31T06:40:22.655Z,7.32
2018-05-31T06:42:50.184Z,7.60
2018-05-31T06:45:17.497Z,7.93
2018-05-31T06:47:45.040Z,7.70
2018-05-31T06:50:12.313Z,7.60
2018-05-31T06:52:39.623Z,7.70
2018-05-31T06:55:07.215Z,7.57
2018-05-31T06:57:34.534Z,7.37
2018-05-31T07:00:01.829Z,7.30
2018-05-31T07:02:29.133Z,7.65
2018-05-31T07:04:56.415Z,7.55
2018-05-31T07:07:23.985Z,7.62
2018-05-31T07:09:51.549Z,7.47
2018-05-31T07:12:18.902Z,9.70
2018-05-31T07:14:46.209Z,7.50
2018-05-31T07:17:13.488Z,9.35
2018-05-31T07:19:40.777Z,13.98
2018-05-31T07:22:08.053Z,9.15
2018-05-31T07:24:35.682Z,7.97
2018-05-31T07:27:02.959Z,8.77
2018-05-31T07:29:30.275Z,7.97
2018-05-31T07:31:57.849Z,7.47
2018-05-31T07:34:25.165Z,7.00
2018-05-31T07:36:52.496Z,6.77
2018-05-31T07:39:20.127Z,6.30
2018-05-31T07:41:47.447Z,6.12
2018-05-31T07:44:15.051Z,6.25
2018-05-31T07:46:42.358Z,7.00
2018-05-31T07:49:09.944Z,6.75
2018-05-31T07:51:37.236Z,6.87
2018-05-31T07:54:04.547Z,6.20
2018-05-31T07:56:31.836Z,6.03
2018-05-31T07:58:59.473Z,6.53
2018-05-31T08:01:27.142Z,7.00
2018-05-31T08:03:54.433Z,6.20
2018-05-31T08:06:21.734Z,5.62
2018-05-31T08:08:49.025Z,5.80
2018-05-31T08:11:16.563Z,5.75
2018-05-31T08:13:44.222Z,6.03
2018-05-31T08:16:11.522Z,5.80
2018-05-31T08:18:38.850Z,5.70
2018-05-31T08:21:06.384Z,6.10
2018-05-31T08:23:33.701Z,5.97
2018-05-31T08:26:00.981Z,6.10
2018-05-31T08:28:28.257Z,5.60
2018-05-31T08:30:55.540Z,5.80
2018-05-31T08:33:22.858Z,5.60
2018-05-31T08:35:50.130Z,5.68
2018-05-31T08:38:17.665Z,5.40
2018-05-31T08:40:45.235Z,5.70
2018-05-31T08:43:12.807Z,5.80
2018-05-31T08:45:40.235Z,5.70
2018-05-31T08:48:07.591Z,5.87
2018-05-31T08:50:34.902Z,6.10
2018-05-31T08:53:02.214Z,6.10
2018-05-31T08:55:29.778Z,5.90
2018-05-31T08:57:57.138Z,5.60
2018-05-31T09:00:24.502Z,5.20
2018-05-31T09:02:51.850Z,5.72
2018-05-31T09:05:19.186Z,6.90
2018-05-31T09:07:46.779Z,5.25
2018-05-31T09:10:14.427Z,5.68
2018-05-31T09:12:41.977Z,5.30
2018-05-31T09:15:09.701Z,6.30
2018-05-31T09:17:37.311Z,5.30
2018-05-31T09:20:04.971Z,6.30
2018-05-31T09:22:32.331Z,5.87
2018-05-31T09:24:59.646Z,5.43
2018-05-31T09:27:27.011Z,5.87
2018-05-31T09:29:54.315Z,5.10
2018-05-31T09:32:21.955Z,5.30
2018-05-31T09:34:49.619Z,6.00
2018-05-31T09:37:16.959Z,6.07
2018-05-31T09:39:44.352Z,6.55
2018-05-31T09:42:11.686Z,7.45
2018-05-31T09:44:39.028Z,5.90
2018-05-31T09:47:06.699Z,5.30
2018-05-31T09:49:34.269Z,4.20
2018-05-31T09:52:01.671Z,4.70
2018-05-31T09:54:29.059Z,4.90
2018-05-31T09:56:57.999Z,4.70
2018-05-31T09:59:25.598Z,5.05
2018-05-31T10:01:52.956Z,5.00
2018-05-31T10:04:20.289Z,4.50
2018-05-31T10:06:47.632Z,4.60
2018-05-31T10:09:15.124Z,4.75
2018-05-31T10:11:42.464Z,4.75
2018-05-31T10:14:10.042Z,4.60
2018-05-31T10:16:38.132Z,4.82
2018-05-31T10:19:05.467Z,4.90
2018-05-31T10:21:32.925Z,4.57
2018-05-31T10:24:00.390Z,5.07
2018-05-31T10:26:27.717Z,4.57
2018-05-31T10:28:55.418Z,4.60
2018-05-31T10:31:22.762Z,4.70
2018-05-31T10:33:50.126Z,4.30
2018-05-31T10:36:17.428Z,4.60
2018-05-31T10:38:44.771Z,4.82
2018-05-31T10:41:12.085Z,4.60
2018-05-31T10:43:39.759Z,4.30
2018-05-31T10:46:07.155Z,5.40
2018-05-31T10:48:34.773Z,4.75
2018-05-31T10:51:02.442Z,4.20
2018-05-31T10:53:29.787Z,4.50
2018-05-31T10:55:57.361Z,4.50
2018-05-31T10:58:25.020Z,4.50
2018-05-31T11:00:52.342Z,4.25
2018-05-31T11:03:19.816Z,4.35
2018-05-31T11:05:47.106Z,5.47
2018-05-31T11:08:14.388Z,4.40
2018-05-31T11:10:41.722Z,4.30
2018-05-31T11:13:09.021Z,4.75
2018-05-31T11:15:36.595Z,4.87
2018-05-31T11:18:03.892Z,4.60
2018-05-31T11:20:31.185Z,4.50
2018-05-31T11:22:58.762Z,4.80
2018-05-31T11:25:26.041Z,4.50
2018-05-31T11:27:53.316Z,4.87
2018-05-31T11:30:20.628Z,4.80
2018-05-31T11:32:48.190Z,4.90
2018-05-31T11:35:15.514Z,4.95
2018-05-31T11:37:43.096Z,4.95
2018-05-31T11:40:10.374Z,5.10
2018-05-31T11:42:37.915Z,5.10
2018-05-31T11:45:05.472Z,5.15
2018-05-31T11:47:33.037Z,5.30
2018-05-31T11:50:00.338Z,5.53
2018-05-31T11:52:27.608Z,5.35
2018-05-31T11:54:55.200Z,5.22
2018-05-31T11:57:22.480Z,5.03
2018-05-31T11:59:50.013Z,5.30
2018-05-31T12:02:17.284Z,5.20
2018-05-31T12:04:44.597Z,6.45
2018-05-31T12:07:11.914Z,5.10
2018-05-31T12:09:39.192Z,4.80
2018-05-31T12:12:06.791Z,5.43
2018-05-31T12:14:34.064Z,5.20
2018-05-31T12:17:01.412Z,4.50
2018-05-31T12:19:28.697Z,5.05
2018-05-31T12:21:55.973Z,5.20
2018-05-31T12:24:23.286Z,4.37
2018-05-31T12:26:50.590Z,4.70
2018-05-31T12:29:17.869Z,5.03
2018-05-31T12:31:45.218Z,4.87
2018-05-31T12:34:12.497Z,4.87
2018-05-31T12:36:39.796Z,4.43
2018-05-31T12:39:07.346Z,5.00
2018-05-31T12:41:34.650Z,4.50
2018-05-31T12:44:02.181Z,4.78
2018-05-31T12:46:29.449Z,4.80
2018-05-31T12:48:56.976Z,4.85
2018-05-31T12:51:24.248Z,5.60
2018-05-31T12:53:51.551Z,8.15
2018-05-31T12:56:19.068Z,5.10
2018-05-31T12:58:46.354Z,5.90
2018-05-31T13:01:13.926Z,5.77
2018-05-31T13:03:41.242Z,5.30
2018-05-31T13:06:08.572Z,5.70
2018-05-31T13:08:36.060Z,5.18
2018-05-31T13:11:03.370Z,5.25
2018-05-31T13:13:31.003Z,5.37
2018-05-31T13:15:58.330Z,5.03
2018-05-31T13:18:25.642Z,5.40
2018-05-31T13:20:53.186Z,4.68
2018-05-31T13:23:20.482Z,5.00
2018-05-31T13:25:47.806Z,4.40
2018-05-31T13:28:15.082Z,5.30
2018-05-31T13:30:42.386Z,5.00
2018-05-31T13:33:10.845Z,5.55
2018-05-31T13:35:38.130Z,4.90
2018-05-31T13:38:05.429Z,4.80
2018-05-31T13:40:33.487Z,4.78
2018-05-31T13:43:00.785Z,4.50
2018-05-31T13:45:28.110Z,4.40
2018-05-31T13:47:55.646Z,4.20
2018-05-31T13:50:23.088Z,4.40
2018-05-31T13:52:50.372Z,4.03
2018-05-31T13:55:18.578Z,3.97
2018-05-31T13:57:46.361Z,4.30
2018-05-31T14:00:13.766Z,4.43
2018-05-31T14:02:41.040Z,4.35
2018-05-31T14:05:08.612Z,5.10
2018-05-31T14:07:36.242Z,4.85
2018-05-31T14:10:03.629Z,4.60
2018-05-31T14:12:31.188Z,4.30
2018-05-31T14:14:58.506Z,4.40
2018-05-31T14:17:25.845Z,5.75
2018-05-31T14:19:53.162Z,4.50
2018-05-31T14:22:20.735Z,4.43
2018-05-31T14:24:48.058Z,4.60
2018-05-31T14:27:15.642Z,4.60
2018-05-31T14:29:42.998Z,4.68
2018-05-31T14:32:10.313Z,5.15
2018-05-31T14:34:37.629Z,6.50
2018-05-31T14:37:05.007Z,5.50
2018-05-31T14:39:32.359Z,3.90
2018-05-31T14:41:59.720Z,4.70
2018-05-31T14:44:27.030Z,4.70
2018-05-31T14:46:54.357Z,5.50
2018-05-31T14:49:21.665Z,4.50
2018-05-31T14:51:48.975Z,4.40
2018-05-31T14:54:16.555Z,4.28
2018-05-31T14:56:43.882Z,4.30
2018-05-31T14:59:11.238Z,4.40
2018-05-31T15:01:38.796Z,4.10
2018-05-31T15:04:06.203Z,4.30
2018-05-31T15:06:33.485Z,4.20
2018-05-31T15:09:00.800Z,4.10
2018-05-31T15:11:28.162Z,4.30
2018-05-31T15:13:55.466Z,4.20
2018-05-31T15:16:22.819Z,4.10
2018-05-31T15:18:50.113Z,4.37
2018-05-31T15:21:17.488Z,4.40
2018-05-31T15:23:44.785Z,3.60
2018-05-31T15:26:12.086Z,4.18
2018-05-31T15:28:39.731Z,4.25
2018-05-31T15:31:07.063Z,4.40
2018-05-31T15:33:34.388Z,5.55
2018-05-31T15:36:01.766Z,5.12
2018-05-31T15:38:29.087Z,4.40
2018-05-31T15:40:56.706Z,4.37
2018-05-31T15:43:24.379Z,4.20
2018-05-31T15:45:51.727Z,4.60
2018-05-31T15:48:19.285Z,8.50
2018-05-31T15:50:46.630Z,4.68
2018-05-31T15:53:14.198Z,4.90
2018-05-31T15:55:41.868Z,4.40
2018-05-31T15:58:09.422Z,4.20
2018-05-31T16:00:36.759Z,4.78
2018-05-31T16:03:04.337Z,4.40
2018-05-31T16:05:31.647Z,5.12
2018-05-31T16:07:58.986Z,4.70
2018-05-31T16:10:26.320Z,4.05
2018-05-31T16:12:53.622Z,3.95
2018-05-31T16:15:21.004Z,3.70
2018-05-31T16:17:48.310Z,3.70
2018-05-31T16:20:15.660Z,4.18
2018-05-31T16:22:43.260Z,3.73
2018-05-31T16:25:10.606Z,3.92
2018-05-31T16:27:37.983Z,3.80
2018-05-31T16:30:05.331Z,3.90
2018-05-31T16:32:33.011Z,3.10
2018-05-31T16:35:00.376Z,2.87
2018-05-31T16:37:28.032Z,3.47
2018-05-31T16:39:55.330Z,3.35
2018-05-31T16:42:22.690Z,3.20
2018-05-31T16:44:50.305Z,3.70
2018-05-31T16:47:17.639Z,3.60
2018-05-31T16:49:45.021Z,3.35
2018-05-31T16:52:12.439Z,3.25
2018-05-31T16:54:39.753Z,3.20
2018-05-31T16:57:07.387Z,3.20
2018-05-31T16:59:34.725Z,3.47
2018-05-31T17:02:02.070Z,3.85
2018-05-31T17:04:29.386Z,3.40
2018-05-31T17:06:56.716Z,3.40
2018-05-31T17:09:24.254Z,3.20
2018-05-31T17:11:51.557Z,3.25
2018-05-31T17:14:18.870Z,3.37
2018-05-31T17:16:46.205Z,3.00
2018-05-31T17:19:13.505Z,3.40
2018-05-31T17:21:40.834Z,3.50
2018-05-31T17:24:08.170Z,3.30
2018-05-31T17:26:35.502Z,3.30
2018-05-31T17:29:02.856Z,3.65
2018-05-31T17:31:30.187Z,3.80
2018-05-31T17:33:57.559Z,3.42
2018-05-31T17:36:24.865Z,3.60
2018-05-31T17:38:52.199Z,3.50
2018-05-31T17:41:19.886Z,3.50
2018-05-31T17:43:47.542Z,3.40
2018-05-31T17:46:15.098Z,3.60
2018-05-31T17:48:42.434Z,3.28
2018-05-31T17:51:10.018Z,3.40
2018-05-31T17:53:37.355Z,3.53
2018-05-31T17:56:04.691Z,3.40
2018-05-31T17:58:32.047Z,3.78
2018-05-31T18:00:59.644Z,3.83
2018-05-31T18:03:27.037Z,3.80
2018-05-31T18:05:54.387Z,3.42
2018-05-31T18:08:21.984Z,3.80
2018-05-31T18:10:49.340Z,3.17
2018-05-31T18:13:16.640Z,3.47
2018-05-31T18:15:43.999Z,4.10
2018-05-31T18:18:11.339Z,3.30
2018-05-31T18:20:39.003Z,3.75
2018-05-31T18:23:06.346Z,3.90
2018-05-31T18:25:33.883Z,3.40
2018-05-31T18:28:01.198Z,3.90
2018-05-31T18:30:28.513Z,3.60
2018-05-31T18:32:55.859Z,3.72
2018-05-31T18:35:23.203Z,3.83
2018-05-31T18:37:50.742Z,3.70
2018-05-31T18:40:18.082Z,3.70
2018-05-31T18:42:45.414Z,3.62
2018-05-31T18:45:12.754Z,3.53
2018-05-31T18:47:40.065Z,3.60
2018-05-31T18:50:07.398Z,3.55
2018-05-31T18:52:34.751Z,3.80
2018-05-31T18:55:02.290Z,4.00
2018-05-31T18:57:29.639Z,4.37
2018-05-31T18:59:56.976Z,4.25
2018-05-31T19:02:24.298Z,3.58
2018-05-31T19:04:51.611Z,4.13
2018-05-31T19:07:19.265Z,3.20
2018-05-31T19:09:46.612Z,3.67
2018-05-31T19:12:14.194Z,3.50
2018-05-31T19:14:41.547Z,3.53
2018-05-31T19:17:08.913Z,3.60
2018-05-31T19:19:41.874Z,3.70
2018-05-31T19:22:09.219Z,3.80
2018-05-31T19:24:42.478Z,3.70
2018-05-31T19:27:09.786Z,3.92
2018-05-31T19:29:37.162Z,3.40
2018-05-31T19:32:04.507Z,3.58
2018-05-31T19:34:32.196Z,3.50
2018-05-31T19:37:05.388Z,3.50
2018-05-31T19:39:32.979Z,3.40
2018-05-31T19:42:00.345Z,3.00
2018-05-31T19:44:33.429Z,3.20
2018-05-31T19:47:01.113Z,3.05
2018-05-31T19:49:28.458Z,2.92
2018-05-31T19:52:01.719Z,3.10
2018-05-31T19:54:29.033Z,3.60
2018-05-31T19:56:56.681Z,3.40
2018-05-31T19:59:29.756Z,2.90
2018-05-31T20:02:03.262Z,2.90
2018-05-31T20:04:30.616Z,2.90
2018-05-31T20:06:57.953Z,3.10
2018-05-31T20:09:25.640Z,3.12
2018-05-31T20:11:53.303Z,2.80
2018-05-31T20:14:20.669Z,3.00
2018-05-31T20:16:47.938Z,2.80
2018-05-31T20:19:15.316Z,2.70
2018-05-31T20:21:42.639Z,3.30
2018-05-31T20:24:09.985Z,3.30
2018-05-31T20:26:37.306Z,2.90
2018-05-31T20:29:04.658Z,3.08
2018-05-31T20:31:32.250Z,3.10
2018-05-31T20:33:59.581Z,3.00
2018-05-31T20:36:26.918Z,2.87
2018-05-31T20:38:54.270Z,2.70
2018-05-31T20:41:21.613Z,3.10
2018-05-31T20:45:39.407Z,3.05
2018-05-31T20:48:07.079Z,2.75
2018-05-31T20:50:34.396Z,2.97
2018-05-31T20:53:01.702Z,3.00
2018-05-31T20:55:29.338Z,2.80
2018-05-31T20:57:56.638Z,2.90
2018-05-31T21:00:24.097Z,2.80
2018-05-31T21:02:51.490Z,3.33
2018-05-31T21:05:18.929Z,3.35
2018-05-31T21:07:46.295Z,3.30
2018-05-31T21:10:13.881Z,2.95
2018-05-31T21:12:41.229Z,3.00
2018-05-31T21:15:08.821Z,3.20
2018-05-31T21:17:36.154Z,2.97
2018-05-31T21:20:03.605Z,3.10
2018-05-31T21:22:30.865Z,3.30
2018-05-31T21:24:58.201Z,2.93
2018-05-31T21:27:25.539Z,3.00
2018-05-31T21:29:53.078Z,3.50
2018-05-31T21:32:20.394Z,3.00
2018-05-31T21:34:47.690Z,3.33
2018-05-31T21:37:15.302Z,2.80
2018-05-31T21:39:42.628Z,3.00
2018-05-31T21:42:09.927Z,3.20
2018-05-31T21:44:37.275Z,3.30
2018-05-31T21:47:04.629Z,3.00
2018-05-31T21:49:32.294Z,3.10
2018-05-31T21:51:59.962Z,2.80
2018-05-31T21:54:27.327Z,2.90
2018-05-31T21:56:54.627Z,3.00
2018-05-31T21:59:21.963Z,3.40
2018-05-31T22:01:49.574Z,2.97
2018-05-31T22:04:16.918Z,3.30
2018-05-31T22:06:44.306Z,3.00
2018-05-31T22:09:11.606Z,3.10
2018-05-31T22:11:39.194Z,3.40
2018-05-31T22:14:06.519Z,3.10
2018-05-31T22:16:33.820Z,2.97
2018-05-31T22:19:01.466Z,3.25
2018-05-31T22:21:29.131Z,3.33
2018-05-31T22:23:56.423Z,3.60
2018-05-31T22:26:23.737Z,3.50
2018-05-31T22:28:51.406Z,3.10
2018-05-31T22:31:19.003Z,3.12
2018-05-31T22:33:46.339Z,3.25
2018-05-31T22:36:13.979Z,3.12
2018-05-31T22:38:41.302Z,3.10
2018-05-31T22:41:08.653Z,3.00
2018-05-31T22:43:36.355Z,2.90
2018-05-31T22:46:03.732Z,7.50
2018-05-31T22:48:31.157Z,7.77
2018-05-31T22:50:58.712Z,6.80
2018-05-31T22:53:26.006Z,3.37
2018-05-31T22:55:53.438Z,3.40
2018-05-31T22:58:20.750Z,3.80
2018-05-31T23:00:48.041Z,3.28
2018-05-31T23:03:15.493Z,5.57
2018-05-31T23:05:42.804Z,3.67
2018-05-31T23:08:10.076Z,3.50
2018-05-31T23:10:38.349Z,3.75
2018-05-31T23:13:05.649Z,3.33
2018-05-31T23:15:33.420Z,3.47
2018-05-31T23:18:00.753Z,3.20
2018-05-31T23:20:28.034Z,3.40
2018-05-31T23:22:55.354Z,3.67
2018-05-31T23:25:22.913Z,3.40
2018-05-31T23:27:50.473Z,3.25
2018-05-31T23:30:17.828Z,3.80
2018-05-31T23:32:45.391Z,3.30
2018-05-31T23:35:13.000Z,3.50
2018-05-31T23:37:40.617Z,2.92
2018-05-31T23:40:07.889Z,3.10
2018-05-31T23:42:35.211Z,3.47
2018-05-31T23:45:02.866Z,3.08
2018-05-31T23:47:30.239Z,3.20
2018-05-31T23:49:57.587Z,3.00
2018-05-31T23:52:25.162Z,3.10
2018-05-31T23:54:52.722Z,3.17
2018-05-31T23:57:20.088Z,3.35
2018-05-31T23:59:47.533Z,3.30
